Time;durP1;ratioP1;P1;durP2;ratioP2;P2;SDS_P1;SDS_P2;PMS_P1;PMS_P2;Temp;Humidity;BMP_temperature;BMP_pressure;BME280_temperature;BME280_humidity;BME280_pressure;Samples;Min_cycle;Max_cycle;Signal;HPM_P1;HPM_P2
2022/08/14 00:00:31;;;;;;;16.52;12.65;;;;;;;21.96;82.42;99480.55;1710751;82;21059;-74
2022/08/14 00:02:58;;;;;;;15.68;12.33;;;;;;;21.96;82.31;99482.72;1706349;83;21115;-74
2022/08/14 00:05:25;;;;;;;12.58;11.10;;;;;;;21.95;82.18;99489.88;1674692;85;21052;-75
2022/08/14 00:07:52;;;;;;;18.82;11.03;;;;;;;21.96;82.15;99486.02;1672076;84;21191;-75
2022/08/14 00:10:20;;;;;;;17.55;11.03;;;;;;;21.98;81.96;99485.11;1668635;85;21068;-73
2022/08/14 00:12:51;;;;;;;12.85;11.63;;;;;;;21.98;81.74;99485.11;1677258;84;21021;-76
2022/08/14 00:15:23;;;;;;;15.70;11.68;;;;;;;21.97;81.65;99473.91;1669748;85;21494;-73
2022/08/14 00:17:51;;;;;;;15.03;10.82;;;;;;;21.96;81.49;99478.61;1666718;85;21077;-76
2022/08/14 00:20:20;;;;;;;14.80;10.90;;;;;;;21.95;81.37;99481.11;1651061;85;21191;-75
2022/08/14 00:22:46;;;;;;;14.78;11.85;;;;;;;21.94;81.48;99484.16;1645390;86;21056;-74
2022/08/14 00:25:13;;;;;;;11.53;10.32;;;;;;;21.94;81.53;99486.91;1647410;86;21115;-74
2022/08/14 00:27:41;;;;;;;18.20;12.10;;;;;;;21.93;81.54;99481.98;1665367;84;21116;-73
2022/08/14 00:30:10;;;;;;;13.53;11.50;;;;;;;21.92;81.49;99487.19;1666022;85;21020;-74
2022/08/14 00:32:38;;;;;;;21.93;11.80;;;;;;;21.86;81.60;99479.52;1659824;85;21847;-77
2022/08/14 00:35:08;;;;;;;12.73;10.68;;;;;;;21.84;81.79;99486.67;1644136;85;21058;-75
2022/08/14 00:37:38;;;;;;;14.75;11.63;;;;;;;21.83;81.84;99485.63;1657527;85;21026;-74
2022/08/14 00:40:07;;;;;;;16.12;10.65;;;;;;;21.84;81.93;99483.13;1670749;85;21043;-76
2022/08/14 00:42:33;;;;;;;13.18;11.55;;;;;;;21.86;81.86;99483.05;1670709;84;21053;-75
2022/08/14 00:45:00;;;;;;;20.30;12.13;;;;;;;21.84;81.66;99485.31;1665612;85;21144;-76
2022/08/14 00:47:27;;;;;;;13.70;11.20;;;;;;;21.83;81.70;99486.99;1670621;85;21030;-73
2022/08/14 00:49:57;;;;;;;13.35;11.35;;;;;;;21.81;81.65;99481.06;1670183;85;20955;-74
2022/08/14 00:52:24;;;;;;;12.35;11.12;;;;;;;21.82;81.59;99476.64;1650362;85;21035;-76
2022/08/14 00:54:55;;;;;;;13.15;10.85;;;;;;;21.82;81.52;99476.64;1671111;85;21077;-75
2022/08/14 00:57:25;;;;;;;18.32;10.72;;;;;;;21.80;81.46;99471.23;1670810;84;21927;-76
2022/08/14 00:59:51;;;;;;;14.90;11.03;;;;;;;21.80;81.35;99476.72;1671744;84;20958;-74
2022/08/14 01:02:23;;;;;;;14.98;10.58;;;;;;;21.78;81.27;99474.30;1664998;84;21064;-75
2022/08/14 01:04:48;;;;;;;12.40;11.15;;;;;;;21.77;81.19;99476.82;1669207;85;21100;-75
2022/08/14 01:07:19;;;;;;;14.18;11.22;;;;;;;21.79;80.94;99469.63;1648516;85;21543;-75
2022/08/14 01:09:50;;;;;;;15.88;10.32;;;;;;;21.75;80.87;99468.12;1644590;85;21022;-76
2022/08/14 01:12:18;;;;;;;11.85;10.63;;;;;;;21.75;80.74;99470.86;1643730;86;21531;-75
2022/08/14 01:14:45;;;;;;;11.05;9.55;;;;;;;21.74;80.58;99472.78;1643701;86;20978;-75
2022/08/14 01:17:12;;;;;;;17.48;11.88;;;;;;;21.74;80.46;99461.84;1671338;84;21080;-75
2022/08/14 01:22:24;;;;;;;11.53;10.25;;;;;;;21.74;80.32;99468.69;1665823;84;21140;-74
2022/08/14 01:24:52;;;;;;;13.48;11.97;;;;;;;21.74;80.18;99478.27;1653449;85;21109;-75
2022/08/14 01:27:21;;;;;;;16.52;11.35;;;;;;;21.70;80.20;99469.11;1671035;85;21065;-75
2022/08/14 01:29:52;;;;;;;14.03;9.90;;;;;;;21.68;80.21;99471.36;1651237;84;21535;-73
2022/08/14 01:32:20;;;;;;;11.70;10.03;;;;;;;21.69;80.04;99470.80;1636809;84;21065;-74
2022/08/14 01:34:53;;;;;;;12.85;11.63;;;;;;;21.71;79.96;99475.39;1665035;84;21225;-73
2022/08/14 01:37:22;;;;;;;9.98;9.10;;;;;;;21.73;79.72;99469.00;1676113;84;21039;-73
2022/08/14 01:39:50;;;;;;;25.10;11.83;;;;;;;21.72;79.61;99471.52;1708455;83;21035;-73
2022/08/14 01:42:18;;;;;;;14.58;10.55;;;;;;;21.70;79.58;99471.04;1711019;83;21000;-73
2022/08/14 01:44:56;;;;;;;13.18;10.15;;;;;;;21.68;79.38;99474.09;1710805;83;21001;-74
2022/08/14 01:47:18;;;;;;;16.45;9.90;;;;;;;21.67;79.36;99475.81;1711701;83;21931;-73
2022/08/14 01:49:45;;;;;;;12.78;10.10;;;;;;;21.66;79.41;99472.27;1697621;84;21076;-74
2022/08/14 01:52:12;;;;;;;16.60;10.85;;;;;;;21.68;79.32;99468.62;1709215;83;21534;-74
2022/08/14 01:54:40;;;;;;;13.40;11.35;;;;;;;21.67;79.23;99464.86;1686953;83;21031;-75
2022/08/14 01:57:10;;;;;;;12.82;11.45;;;;;;;21.65;79.24;99467.11;1705160;83;21671;-74
2022/08/14 01:59:37;;;;;;;13.85;9.98;;;;;;;21.63;79.11;99461.18;1686826;83;21339;-76
2022/08/14 02:02:11;;;;;;;12.10;10.72;;;;;;;21.63;78.87;99464.69;1711016;83;21059;-74
2022/08/14 02:04:38;;;;;;;16.70;9.03;;;;;;;21.63;78.75;99471.54;1689818;83;21509;-74
2022/08/14 02:07:06;;;;;;;14.20;9.85;;;;;;;21.65;78.58;99472.02;1711087;83;21056;-76
2022/08/14 02:09:37;;;;;;;14.68;10.18;;;;;;;21.66;78.49;99468.16;1695272;83;21592;-74
2022/08/14 02:12:06;;;;;;;14.45;10.30;;;;;;;21.66;78.55;99466.80;1708126;83;21258;-75
2022/08/14 02:14:32;;;;;;;12.30;10.25;;;;;;;21.61;78.69;99471.08;1690115;83;21009;-74
2022/08/14 02:17:00;;;;;;;12.93;10.50;;;;;;;21.62;78.71;99471.89;1708795;83;21232;-73
2022/08/14 02:19:29;;;;;;;18.48;10.13;;;;;;;21.59;78.69;99476.06;1691982;84;21169;-75
2022/08/14 02:21:59;;;;;;;10.68;9.18;;;;;;;21.60;78.66;99479.05;1682570;85;21548;-75
2022/08/14 02:24:30;;;;;;;12.15;8.95;;;;;;;21.60;78.60;99477.67;1661204;85;21144;-73
2022/08/14 02:27:03;;;;;;;11.53;10.15;;;;;;;21.61;78.53;99479.29;1682468;85;20929;-75
2022/08/14 02:29:29;;;;;;;11.73;10.48;;;;;;;21.59;78.50;99476.06;1692431;83;21471;-75
2022/08/14 02:31:57;;;;;;;14.03;10.88;;;;;;;21.59;78.54;99480.17;1683429;83;21024;-75
2022/08/14 02:34:31;;;;;;;12.70;9.53;;;;;;;21.57;78.44;99476.98;1709600;83;21017;-75
2022/08/14 02:37:01;;;;;;;13.15;10.63;;;;;;;21.56;78.36;99477.30;1711097;83;21091;-75
2022/08/14 02:39:29;;;;;;;14.33;11.43;;;;;;;21.52;78.33;99479.89;1710757;83;20956;-79
2022/08/14 02:41:57;;;;;;;22.32;12.20;;;;;;;21.53;78.26;99477.96;1711348;83;20980;-79
2022/08/14 02:44:24;;;;;;;17.00;12.53;;;;;;;21.54;78.11;99478.98;1711157;82;21048;-79
2022/08/14 02:46:55;;;;;;;18.95;12.20;;;;;;;21.53;78.07;99480.14;1711239;83;20964;-79
2022/08/14 02:49:25;;;;;;;18.42;11.63;;;;;;;21.51;78.11;99481.02;1709907;83;21101;-75
2022/08/14 02:51:50;;;;;;;11.95;10.28;;;;;;;21.48;78.15;99476.77;1699529;83;21072;-78
2022/08/14 02:54:18;;;;;;;12.78;9.20;;;;;;;21.46;78.23;99475.72;1711139;83;21111;-77
2022/08/14 02:56:45;;;;;;;11.78;9.55;;;;;;;21.44;78.35;99479.92;1710964;83;21525;-77
2022/08/14 02:59:15;;;;;;;10.38;8.30;;;;;;;21.43;78.37;99476.94;1711198;82;21072;-77
2022/08/14 03:01:44;;;;;;;15.90;8.63;;;;;;;21.44;78.38;99478.55;1708728;83;21082;-76
2022/08/14 03:04:13;;;;;;;19.85;9.98;;;;;;;21.43;78.40;99469.55;1683890;83;20963;-76
2022/08/14 03:06:45;;;;;;;10.05;9.10;;;;;;;21.41;78.35;99470.98;1660865;85;21525;-76
2022/08/14 03:09:11;;;;;;;13.93;11.05;;;;;;;21.40;78.33;99473.47;1645934;85;21012;-75
2022/08/14 03:11:41;;;;;;;11.60;9.58;;;;;;;21.35;78.47;99477.75;1644533;85;21031;-75
2022/08/14 03:14:10;;;;;;;16.07;9.10;;;;;;;21.30;78.63;99480.91;1680492;84;21275;-74
2022/08/14 03:16:37;;;;;;;10.85;8.75;;;;;;;21.30;78.79;99474.63;1670645;85;21030;-78
2022/08/14 03:19:08;;;;;;;15.43;9.68;;;;;;;21.31;78.72;99474.87;1671058;85;20958;-75
2022/08/14 03:21:36;;;;;;;13.98;9.68;;;;;;;21.33;78.54;99478.66;1669088;85;21080;-76
2022/08/14 03:26:33;;;;;;;11.75;10.50;;;;;;;21.27;78.70;99482.13;1655205;85;22318;-76
2022/08/14 03:29:01;;;;;;;14.58;10.63;;;;;;;21.26;78.78;99481.88;1661861;84;21006;-78
2022/08/14 03:31:28;;;;;;;15.35;11.45;;;;;;;21.22;78.68;99475.46;1656863;85;21057;-78
2022/08/14 03:33:55;;;;;;;9.05;8.10;;;;;;;21.20;78.78;99474.97;1643873;87;21082;-78
2022/08/14 03:36:24;;;;;;;9.53;8.40;;;;;;;21.19;78.83;99481.03;1679381;85;21075;-76
2022/08/14 03:38:52;;;;;;;14.07;8.63;;;;;;;21.19;78.77;99474.20;1698098;83;21051;-78
2022/08/14 03:41:22;;;;;;;12.10;9.85;;;;;;;21.19;78.73;99478.86;1715937;83;20971;-75
2022/08/14 03:43:56;;;;;;;10.53;9.43;;;;;;;21.20;78.66;99479.07;1674750;84;21691;-77
2022/08/14 03:46:26;;;;;;;12.78;10.20;;;;;;;21.20;78.61;99481.25;1680873;84;21677;-77
2022/08/14 03:48:53;;;;;;;12.58;10.40;;;;;;;21.18;78.58;99482.16;1682931;85;21505;-78
2022/08/14 03:51:21;;;;;;;12.93;10.88;;;;;;;21.16;78.66;99483.03;1682501;85;21537;-76
2022/08/14 03:53:48;;;;;;;12.53;9.98;;;;;;;21.16;78.62;99480.86;1710943;83;21054;-78
2022/08/14 03:56:16;;;;;;;11.97;10.05;;;;;;;21.16;78.61;99480.30;1707574;83;20944;-77
2022/08/14 03:58:47;;;;;;;11.85;9.93;;;;;;;21.20;78.56;99485.34;1710549;82;21049;-75
2022/08/14 04:01:18;;;;;;;12.65;9.55;;;;;;;21.21;78.41;99488.89;1710722;83;21101;-77
2022/08/14 04:03:47;;;;;;;10.85;9.70;;;;;;;21.25;78.29;99496.13;1685317;83;21126;-76
2022/08/14 04:06:15;;;;;;;12.13;9.40;;;;;;;21.26;78.01;99497.73;1681742;85;21107;-76
2022/08/14 04:08:42;;;;;;;24.63;13.25;;;;;;;21.24;78.12;99489.63;1676356;85;21005;-75
2022/08/14 04:11:09;;;;;;;13.95;9.60;;;;;;;21.25;78.10;99486.55;1682346;85;21043;-73
2022/08/14 04:13:40;;;;;;;12.98;9.63;;;;;;;21.23;78.07;99488.02;1706096;83;20985;-73
2022/08/14 04:16:14;;;;;;;13.20;11.15;;;;;;;21.26;77.94;99484.62;1678248;84;21226;-75
2022/08/14 04:18:46;;;;;;;10.32;9.28;;;;;;;21.27;77.83;99484.30;1690560;83;21011;-76
2022/08/14 04:21:13;;;;;;;12.37;11.05;;;;;;;21.32;77.69;99479.22;1689072;83;21295;-75
2022/08/14 04:23:41;;;;;;;12.23;11.00;;;;;;;21.34;77.63;99478.91;1694219;82;21594;-74
2022/08/14 04:26:11;;;;;;;11.57;10.38;;;;;;;21.37;77.63;99476.31;1690039;84;21118;-76
2022/08/14 04:28:39;;;;;;;10.63;9.50;;;;;;;21.39;77.67;99473.26;1692675;82;21124;-77
2022/08/14 04:31:08;;;;;;;13.72;10.43;;;;;;;21.39;77.67;99471.30;1686032;85;21124;-74
2022/08/14 04:33:35;;;;;;;11.38;9.85;;;;;;;21.43;77.62;99467.36;1712358;83;21056;-78
2022/08/14 04:36:03;;;;;;;15.30;11.55;;;;;;;21.45;77.50;99464.53;1718451;83;21107;-77
2022/08/14 04:44:01;;;;;;;10.50;9.40;;;;;;;21.42;78.74;99458.91;1705677;83;21032;-75
2022/08/14 04:46:28;;;;;;;18.12;11.68;;;;;;;21.39;79.19;99456.84;1718235;83;21063;-74
2022/08/14 04:48:56;;;;;;;12.70;10.80;;;;;;;21.38;79.41;99453.86;1718322;83;21067;-75
2022/08/14 04:51:26;;;;;;;11.53;10.32;;;;;;;21.40;79.63;99456.49;1718240;83;21560;-75
2022/08/14 04:53:55;;;;;;;14.20;10.60;;;;;;;21.41;80.26;99454.56;1718051;83;21504;-75
2022/08/14 04:56:23;;;;;;;10.75;9.38;;;;;;;21.42;80.37;99454.80;1718158;83;21122;-77
2022/08/14 04:58:56;;;;;;;15.50;10.72;;;;;;;21.40;81.08;99458.42;1700102;82;21485;-82
2022/08/14 05:01:24;;;;;;;;;;;;;;;21.40;80.76;99458.42;1698518;83;21051;-82
2022/08/14 05:03:52;;;;;;;16.62;13.88;;;;;;;21.41;81.08;99463.58;1718298;83;20180;-77
2022/08/14 05:06:20;;;;;;;21.80;13.62;;;;;;;21.45;80.92;99460.98;1718185;83;21137;-77
2022/08/14 05:08:47;;;;;;;21.97;14.47;;;;;;;21.51;80.68;99463.79;1718180;83;21064;-78
2022/08/14 05:11:14;;;;;;;19.52;12.82;;;;;;;21.52;80.69;99459.92;1718119;82;21087;-77
2022/08/14 05:13:42;;;;;;;14.03;12.00;;;;;;;21.57;79.96;99467.40;1703269;82;21658;-75
2022/08/14 05:16:12;;;;;;;13.83;10.90;;;;;;;21.63;78.87;99470.17;1680423;83;21044;-74
2022/08/14 05:18:40;;;;;;;11.20;10.10;;;;;;;21.71;78.71;99469.91;1682416;85;21083;-77
2022/08/14 05:21:08;;;;;;;13.65;11.18;;;;;;;21.79;78.33;99470.44;1689769;83;20992;-75
2022/08/14 05:23:39;;;;;;;15.88;9.88;;;;;;;21.87;78.09;99466.84;1695000;83;21013;-75
2022/08/14 05:26:11;;;;;;;11.12;10.00;;;;;;;21.98;77.42;99470.84;1681230;85;21008;-77
2022/08/14 05:28:34;;;;;;;13.78;10.40;;;;;;;22.07;76.86;99469.42;1682485;82;21060;-75
2022/08/14 05:31:07;;;;;;;11.53;8.88;;;;;;;22.14;76.22;99460.13;1697668;83;21253;-74
2022/08/14 05:33:35;;;;;;;13.25;11.85;;;;;;;22.21;75.75;99465.06;1676773;85;21099;-74
2022/08/14 05:36:10;;;;;;;16.65;11.85;;;;;;;22.25;75.02;99463.30;1648039;86;20959;-75
2022/08/14 05:38:40;;;;;;;18.80;14.55;;;;;;;22.24;74.50;99469.34;1642695;85;21098;-74
2022/08/14 05:41:13;;;;;;;16.35;11.30;;;;;;;22.26;74.61;99462.13;1666166;85;20976;-76
2022/08/14 05:43:40;;;;;;;16.82;12.53;;;;;;;22.32;74.27;99468.47;1678161;83;21803;-75
2022/08/14 05:46:11;;;;;;;19.35;14.33;;;;;;;22.36;73.99;99461.75;1700649;82;20984;-75
2022/08/14 05:48:38;;;;;;;14.20;12.00;;;;;;;22.42;73.95;99461.79;1711011;83;21384;-74
2022/08/14 05:51:05;;;;;;;18.40;10.70;;;;;;;22.45;73.69;99463.85;1712026;83;21115;-74
2022/08/14 05:53:32;;;;;;;11.65;10.55;;;;;;;22.50;73.46;99456.80;1682123;84;21040;-73
2022/08/14 05:55:59;;;;;;;18.87;10.38;;;;;;;22.52;73.35;99460.02;1682463;84;21254;-74
2022/08/14 05:58:25;;;;;;;13.70;9.43;;;;;;;22.55;73.36;99460.15;1690081;84;21586;-75
2022/08/14 06:00:56;;;;;;;10.23;8.53;;;;;;;22.60;73.36;99464.06;1691033;82;21067;-77
2022/08/14 06:03:23;;;;;;;8.53;7.72;;;;;;;22.71;73.16;99468.61;1691989;83;21071;-74
2022/08/14 06:05:52;;;;;;;12.05;9.25;;;;;;;22.78;72.73;99461.22;1716585;83;21496;-74
2022/08/14 06:08:28;;;;;;;12.63;9.15;;;;;;;22.85;72.82;99456.78;1705944;83;21174;-74
2022/08/14 06:11:02;;;;;;;11.38;10.35;;;;;;;22.93;72.44;99456.46;1717994;83;20996;-73
2022/08/14 06:13:30;;;;;;;13.60;9.63;;;;;;;23.02;72.37;99457.20;1710424;83;20949;-73
2022/08/14 06:15:58;;;;;;;14.15;9.28;;;;;;;23.08;71.99;99450.34;1710139;82;21017;-77
2022/08/14 06:18:25;;;;;;;9.88;8.88;;;;;;;23.13;72.05;99454.25;1713668;83;21017;-79
2022/08/14 06:20:53;;;;;;;12.53;9.15;;;;;;;23.22;71.95;99456.33;1713068;82;22018;-77
2022/08/14 06:23:20;;;;;;;9.88;8.98;;;;;;;23.33;71.56;99452.59;1698314;83;21051;-79
2022/08/14 06:25:47;;;;;;;9.50;8.50;;;;;;;23.40;70.75;99454.22;1690818;83;21015;-76
2022/08/14 06:28:22;;;;;;;12.30;9.90;;;;;;;23.44;69.95;99455.13;1711716;83;21564;-75
2022/08/14 06:30:49;;;;;;;8.70;7.80;;;;;;;23.49;69.68;99457.69;1669677;83;21135;-76
2022/08/14 06:33:17;;;;;;;8.80;7.92;;;;;;;23.56;69.11;99459.85;1673851;84;21155;-75
2022/08/14 06:35:46;;;;;;;13.72;8.33;;;;;;;23.60;69.18;99457.45;1671135;85;21642;-75
2022/08/14 06:38:21;;;;;;;18.10;9.40;;;;;;;23.63;69.13;99466.40;1659354;85;21049;-76
2022/08/14 06:40:50;;;;;;;9.80;8.43;;;;;;;23.65;69.26;99457.23;1643684;87;21701;-76
2022/08/14 06:43:18;;;;;;;11.63;8.03;;;;;;;23.70;69.15;99458.95;1642962;85;21089;-75
2022/08/14 06:45:47;;;;;;;9.00;7.95;;;;;;;23.80;68.86;99459.87;1663244;84;21888;-73
2022/08/14 06:48:22;;;;;;;8.75;7.92;;;;;;;23.86;68.32;99459.87;1647292;84;21048;-77
2022/08/14 06:50:52;;;;;;;14.07;8.85;;;;;;;23.94;67.75;99469.94;1643910;87;20974;-79
2022/08/14 06:53:20;;;;;;;9.38;8.00;;;;;;;23.95;67.67;99468.00;1644071;87;21004;-78
2022/08/14 06:55:47;;;;;;;8.75;7.95;;;;;;;23.95;67.21;99468.80;1643723;87;21578;-77
2022/08/14 06:58:16;;;;;;;11.05;8.03;;;;;;;23.97;67.10;99467.09;1643453;87;21340;-80
2022/08/14 07:05:44;;;;;;;11.90;7.70;;;;;;;23.94;66.63;99475.44;1644648;85;21091;-77
2022/08/14 07:05:57;;;;;;;14.33;10.82;;;;;;;23.97;67.14;99469.84;1635594;85;21034;-74
2022/08/14 07:08:29;;;;;;;10.18;8.98;;;;;;;24.04;67.50;99464.55;1643976;85;21138;-75
2022/08/14 07:11:02;;;;;;;13.68;8.85;;;;;;;24.13;67.11;99455.61;1643925;87;21124;-74
2022/08/14 07:13:30;;;;;;;9.48;8.45;;;;;;;24.22;66.71;99468.11;1643910;87;21021;-77
2022/08/14 07:15:58;;;;;;;11.03;7.80;;;;;;;24.32;66.22;99463.52;1643812;87;21054;-77
2022/08/14 07:18:29;;;;;;;9.55;7.20;;;;;;;24.43;65.72;99465.80;1644074;84;21089;-77
2022/08/14 07:20:57;;;;;;;20.32;8.65;;;;;;;24.54;65.55;99461.42;1650853;85;21062;-79
2022/08/14 07:23:25;;;;;;;10.63;9.13;;;;;;;24.62;64.83;99461.28;1672635;85;21220;-77
2022/08/14 07:25:54;;;;;;;12.03;7.42;;;;;;;24.69;64.30;99458.75;1663878;85;21576;-77
2022/08/14 07:28:28;;;;;;;7.55;6.95;;;;;;;24.76;64.34;99466.38;1670345;85;21097;-76
2022/08/14 07:30:59;;;;;;;10.68;7.90;;;;;;;24.85;64.34;99468.41;1666848;85;21073;-75
2022/08/14 07:33:28;;;;;;;8.18;7.37;;;;;;;24.93;64.06;99471.64;1651430;84;21024;-74
2022/08/14 07:35:56;;;;;;;8.23;7.08;;;;;;;25.02;64.16;99474.23;1641600;85;21638;-73
2022/08/14 07:38:23;;;;;;;8.63;7.83;;;;;;;25.09;64.13;99475.22;1660090;85;21005;-76
2022/08/14 07:40:50;;;;;;;12.28;8.23;;;;;;;25.18;63.66;99470.34;1669938;84;21009;-76
2022/08/14 07:43:17;;;;;;;9.98;7.50;;;;;;;25.25;63.41;99466.20;1667594;84;21021;-75
2022/08/14 07:45:44;;;;;;;10.72;9.73;;;;;;;25.31;63.04;99471.67;1654251;85;21074;-75
2022/08/14 07:48:11;;;;;;;11.20;8.25;;;;;;;25.39;62.99;99466.56;1671172;85;21842;-76
2022/08/14 07:50:38;;;;;;;8.15;7.35;;;;;;;25.47;62.94;99466.39;1656261;84;21538;-76
2022/08/14 07:53:06;;;;;;;10.25;8.40;;;;;;;25.53;62.42;99472.44;1658280;85;21023;-77
2022/08/14 07:55:33;;;;;;;8.85;6.92;;;;;;;25.58;62.40;99468.08;1648709;85;21179;-79
2022/08/14 07:58:00;;;;;;;13.78;8.10;;;;;;;25.60;62.27;99463.83;1643192;87;21098;-75
2022/08/14 08:00:27;;;;;;;8.63;7.75;;;;;;;25.66;61.74;99471.83;1643813;87;21840;-75
2022/08/14 08:02:55;;;;;;;10.80;7.53;;;;;;;25.70;61.25;99467.20;1648048;84;21054;-75
2022/08/14 08:05:23;;;;;;;7.62;6.70;;;;;;;25.72;61.29;99466.25;1675072;84;21589;-76
2022/08/14 08:07:52;;;;;;;8.13;7.28;;;;;;;25.77;61.09;99463.23;1654989;84;21612;-75
2022/08/14 08:10:32;;;;;;;8.98;8.08;;;;;;;25.86;61.10;99463.84;1667620;84;21090;-75
2022/08/14 08:13:12;;;;;;;11.12;7.70;;;;;;;25.92;60.39;99465.18;1646345;84;21290;-75
2022/08/14 08:15:45;;;;;;;9.80;7.37;;;;;;;25.98;59.79;99462.38;1645047;85;21074;-73
2022/08/14 08:18:14;;;;;;;10.32;7.08;;;;;;;26.03;59.63;99467.05;1643815;87;21113;-78
2022/08/14 08:20:45;;;;;;;8.43;7.47;;;;;;;26.08;59.90;99465.97;1657222;84;21502;-78
2022/08/14 08:23:13;;;;;;;7.58;6.87;;;;;;;26.13;59.53;99463.52;1646135;85;21681;-77
2022/08/14 08:25:42;;;;;;;9.33;8.40;;;;;;;26.18;59.42;99465.42;1655014;84;21004;-77
2022/08/14 08:28:22;;;;;;;10.40;8.40;;;;;;;26.23;58.79;99467.93;1658528;84;22401;-78
2022/08/14 08:30:55;;;;;;;13.60;7.15;;;;;;;26.28;58.99;99469.00;1657535;84;21082;-73
2022/08/14 08:33:26;;;;;;;8.65;7.12;;;;;;;26.32;58.93;99467.72;1664401;84;21119;-76
2022/08/14 08:35:55;;;;;;;11.55;7.30;;;;;;;26.38;58.96;99464.88;1670740;85;21097;-76
2022/08/14 08:38:25;;;;;;;8.43;7.50;;;;;;;26.44;59.01;99455.17;1671232;84;21250;-78
2022/08/14 08:40:57;;;;;;;8.48;7.62;;;;;;;26.48;58.22;99456.05;1669873;85;21528;-75
2022/08/14 08:43:32;;;;;;;16.45;8.30;;;;;;;26.53;58.30;99462.66;1651793;84;21085;-80
2022/08/14 08:46:15;;;;;;;11.85;8.00;;;;;;;26.54;57.52;99457.37;1701129;82;21103;-74
2022/08/14 08:48:52;;;;;;;8.10;7.30;;;;;;;26.57;57.65;99458.01;1710816;82;21560;-73
2022/08/14 08:51:43;;;;;;;8.25;7.47;;;;;;;26.62;57.35;99459.71;1676978;85;21870;-77
2022/08/14 08:54:06;;;;;;;8.70;7.78;;;;;;;26.64;57.89;99457.38;1662416;85;21013;-76
2022/08/14 08:56:41;;;;;;;9.30;6.67;;;;;;;26.76;58.15;99448.97;1647772;87;21275;-76
2022/08/14 08:59:25;;;;;;;13.40;7.25;;;;;;;26.85;57.69;99448.16;1675787;85;21143;-76
2022/08/14 09:02:01;;;;;;;8.70;7.53;;;;;;;26.95;56.85;99442.66;1659426;83;21549;-73
2022/08/14 09:04:32;;;;;;;9.13;8.13;;;;;;;27.02;56.36;99442.78;1671108;84;21173;-73
2022/08/14 09:06:59;;;;;;;10.45;7.55;;;;;;;27.07;56.33;99441.91;1635607;84;21143;-72
2022/08/14 09:09:28;;;;;;;8.25;7.05;;;;;;;27.09;55.99;99444.31;1646706;86;21034;-72
2022/08/14 09:11:56;;;;;;;11.78;6.53;;;;;;;27.12;56.48;99445.75;1669508;86;21085;-74
2022/08/14 09:14:26;;;;;;;10.38;6.53;;;;;;;27.21;56.33;99427.56;1666232;83;21228;-72
2022/08/14 09:16:53;;;;;;;11.18;7.72;;;;;;;27.27;55.40;99430.25;1670408;84;21070;-72
2022/08/14 09:19:20;;;;;;;11.78;7.22;;;;;;;27.29;55.42;99433.42;1670954;85;21123;-74
2022/08/14 09:21:46;;;;;;;9.40;6.70;;;;;;;27.29;54.98;99435.60;1671067;85;21073;-74
2022/08/14 09:24:13;;;;;;;8.50;7.42;;;;;;;27.30;55.16;99426.16;1668046;84;21012;-73
2022/08/14 09:26:42;;;;;;;10.28;6.47;;;;;;;27.30;55.51;99428.92;1661533;86;21092;-72
2022/08/14 09:29:10;;;;;;;17.45;7.30;;;;;;;27.30;55.25;99423.39;1645319;84;21125;-74
2022/08/14 09:31:39;;;;;;;10.75;7.17;;;;;;;27.33;54.40;99421.30;1654026;84;21256;-74
2022/08/14 09:35:02;;;;;;;7.62;6.87;;;;;;;27.38;54.33;99428.48;1653076;84;21006;-75
2022/08/14 09:37:50;;;;;;;13.20;8.95;;;;;;;27.42;53.16;99427.95;1632370;85;21076;-74
2022/08/14 09:40:41;;;;;;;14.25;7.37;;;;;;;27.45;53.09;99435.49;1648976;85;21627;-74
2022/08/14 09:43:30;;;;;;;9.20;7.03;;;;;;;27.50;53.07;99435.22;1671852;85;21246;-75
2022/08/14 09:45:57;;;;;;;6.95;6.35;;;;;;;27.59;53.44;99437.14;1654197;84;20985;-75
2022/08/14 09:48:25;;;;;;;9.38;6.45;;;;;;;27.61;52.92;99432.64;1657805;86;20995;-74
2022/08/14 09:50:54;;;;;;;10.13;6.53;;;;;;;27.64;52.97;99431.31;1676413;85;21092;-73
2022/08/14 09:53:43;;;;;;;15.00;7.10;;;;;;;27.70;53.37;99424.31;1697499;83;21099;-73
2022/08/14 09:56:11;;;;;;;6.83;6.15;;;;;;;27.86;53.31;99425.55;1717608;83;21192;-75
2022/08/14 09:58:43;;;;;;;15.35;6.90;;;;;;;27.99;52.24;99428.89;1717837;82;21015;-73
2022/08/14 10:01:15;;;;;;;9.10;6.20;;;;;;;28.05;51.82;99416.35;1690004;82;21508;-74
2022/08/14 10:03:55;;;;;;;7.33;6.72;;;;;;;28.07;51.10;99414.79;1712104;81;21024;-76
2022/08/14 10:06:26;;;;;;;9.10;7.35;;;;;;;28.09;51.09;99408.31;1694523;82;21115;-74
2022/08/14 10:09:05;;;;;;;13.90;6.30;;;;;;;28.11;51.56;99414.28;1694782;81;21879;-74
2022/08/14 10:11:37;;;;;;;13.75;8.30;;;;;;;28.12;51.02;99399.87;1688647;84;21613;-72
2022/08/14 10:14:18;;;;;;;12.33;6.23;;;;;;;28.15;51.08;99417.13;1706969;82;21119;-73
2022/08/14 10:16:47;;;;;;;10.60;6.53;;;;;;;28.13;51.20;99424.98;1697245;82;21168;-72
2022/08/14 10:19:15;;;;;;;9.73;6.95;;;;;;;28.11;51.14;99416.25;1681270;84;21087;-73
2022/08/14 10:21:48;;;;;;;6.22;5.60;;;;;;;28.10;51.38;99414.06;1696271;82;21272;-74
2022/08/14 10:24:31;;;;;;;6.92;6.10;;;;;;;28.16;51.59;99414.55;1708850;82;21031;-73
2022/08/14 10:27:00;;;;;;;8.45;5.85;;;;;;;28.22;51.28;99413.64;1706588;82;21155;-73
2022/08/14 10:29:39;;;;;;;15.65;6.35;;;;;;;28.22;51.30;99424.70;1733640;82;21084;-73
2022/08/14 10:32:10;;;;;;;8.30;6.62;;;;;;;28.19;50.82;99419.34;1700196;81;21132;-71
2022/08/14 10:34:38;;;;;;;11.53;6.87;;;;;;;28.15;50.66;99428.19;1714828;82;21182;-72
2022/08/14 10:37:13;;;;;;;7.40;6.08;;;;;;;28.16;50.64;99429.75;1689443;84;37375;-71
2022/08/14 10:39:40;;;;;;;;;;;;;;;28.21;50.79;99439.11;1703246;83;20956;-72
2022/08/14 10:42:11;;;;;;;13.38;6.42;;;;;;;28.27;50.81;99433.48;1716417;82;20195;-69
2022/08/14 10:44:49;;;;;;;7.60;5.75;;;;;;;28.42;50.80;99434.47;1729368;81;20956;-69
2022/08/14 10:47:13;;;;;;;9.60;6.75;;;;;;;28.58;50.31;99432.32;1686438;81;21542;-70
2022/08/14 10:49:47;;;;;;;8.88;6.47;;;;;;;28.68;49.44;99422.55;1689376;83;20988;-73
2022/08/14 10:52:13;;;;;;;8.33;6.65;;;;;;;28.68;48.70;99428.86;1697735;83;20992;-74
2022/08/14 10:54:44;;;;;;;7.22;6.35;;;;;;;28.64;49.05;99423.87;1709204;83;21140;-73
2022/08/14 10:57:23;;;;;;;7.20;6.10;;;;;;;28.68;48.87;99422.55;1690204;82;21063;-75
2022/08/14 10:59:58;;;;;;;7.53;5.80;;;;;;;28.74;48.58;99422.44;1700140;82;21082;-74
2022/08/14 11:02:35;;;;;;;12.00;7.50;;;;;;;28.81;48.92;99422.53;1712011;82;21498;-76
2022/08/14 11:05:17;;;;;;;8.78;6.65;;;;;;;28.90;48.90;99427.98;1711209;83;20988;-78
2022/08/14 11:08:01;;;;;;;7.75;7.00;;;;;;;29.03;48.66;99424.34;1710489;83;22178;-79
2022/08/14 11:10:54;;;;;;;9.28;6.55;;;;;;;29.13;48.27;99431.98;1703805;82;21652;-76
2022/08/14 11:13:26;;;;;;;11.25;6.20;;;;;;;29.10;48.30;99424.44;1693216;82;21176;-73
2022/08/14 11:15:55;;;;;;;12.65;7.05;;;;;;;29.08;48.63;99427.36;1687640;82;21036;-68
2022/08/14 11:18:22;;;;;;;14.90;6.65;;;;;;;29.08;48.76;99425.39;1688664;83;21020;-68
2022/08/14 11:20:54;;;;;;;5.87;5.33;;;;;;;29.13;49.19;99429.20;1702801;84;21092;-68
2022/08/14 11:23:27;;;;;;;10.38;7.67;;;;;;;29.20;48.81;99416.83;1709240;84;22406;-72
2022/08/14 11:25:56;;;;;;;10.93;9.73;;;;;;;29.26;49.21;99429.72;1708816;84;21110;-78
2022/08/14 11:28:24;;;;;;;8.90;6.85;;;;;;;29.26;49.23;99422.20;1705778;82;21082;-73
2022/08/14 11:30:51;;;;;;;10.25;5.95;;;;;;;29.27;48.60;99425.78;1687002;83;21540;-72
2022/08/14 11:33:29;;;;;;;7.62;6.87;;;;;;;29.27;48.82;99416.08;1692809;82;21052;-73
2022/08/14 11:35:59;;;;;;;11.30;6.70;;;;;;;29.20;49.19;99416.83;1719513;81;21076;-72
2022/08/14 11:38:24;;;;;;;9.88;6.40;;;;;;;29.13;49.36;99419.52;1696029;82;21115;-72
2022/08/14 11:40:52;;;;;;;7.05;6.35;;;;;;;29.11;49.41;99418.31;1715011;82;21148;-74
2022/08/14 11:43:20;;;;;;;6.40;5.55;;;;;;;29.18;48.76;99420.55;1703396;81;21064;-77
2022/08/14 11:45:48;;;;;;;8.88;6.12;;;;;;;29.26;48.00;99420.82;1686735;84;21116;-75
2022/08/14 11:48:23;;;;;;;12.00;7.10;;;;;;;29.29;47.17;99413.15;1691746;82;21036;-75
2022/08/14 11:50:53;;;;;;;8.68;6.25;;;;;;;29.29;47.00;99409.58;1645581;86;22172;-74